createdAt,value
2023-01-19T00:01:02.583Z,10.80
2023-01-19T00:03:32.145Z,9.23
2023-01-19T00:06:07.603Z,7.78
2023-01-19T00:08:37.372Z,9.38
2023-01-19T00:11:06.905Z,7.97
2023-01-19T00:13:36.876Z,5.93
2023-01-19T00:16:06.498Z,7.68
2023-01-19T00:18:36.639Z,8.57
2023-01-19T00:21:09.082Z,5.47
2023-01-19T00:23:38.704Z,7.25
2023-01-19T00:26:08.724Z,7.95
2023-01-19T00:28:38.416Z,5.68
2023-01-19T00:31:08.654Z,7.75
2023-01-19T00:33:38.285Z,6.78
2023-01-19T00:36:11.735Z,7.72
2023-01-19T00:38:41.662Z,6.80
2023-01-19T00:41:11.410Z,6.05
2023-01-19T00:43:38.414Z,6.75
2023-01-19T00:46:08.352Z,7.05
2023-01-19T00:48:37.939Z,10.13
2023-01-19T00:51:10.315Z,8.57
2023-01-19T00:53:39.816Z,6.05
2023-01-19T00:56:10.413Z,6.88
2023-01-19T00:58:40.210Z,8.77
2023-01-19T01:01:09.841Z,8.80
2023-01-19T01:03:39.671Z,8.95
2023-01-19T01:06:11.853Z,7.35
2023-01-19T01:08:41.454Z,7.80
2023-01-19T01:11:11.015Z,8.02
2023-01-19T01:13:40.597Z,8.68
2023-01-19T01:16:10.676Z,7.55
2023-01-19T01:18:40.476Z,6.90
2023-01-19T01:21:13.383Z,11.02
2023-01-19T01:23:42.896Z,7.03
2023-01-19T01:26:12.429Z,8.57
2023-01-19T01:28:41.951Z,6.75
2023-01-19T01:31:11.551Z,8.73
2023-01-19T01:33:41.877Z,8.38
2023-01-19T01:36:15.069Z,7.95
2023-01-19T01:38:45.046Z,6.13
2023-01-19T01:41:15.278Z,7.00
2023-01-19T01:43:47.516Z,7.40
2023-01-19T01:46:18.084Z,9.45
2023-01-19T01:48:52.296Z,6.47
2023-01-19T01:51:28.603Z,9.38
2023-01-19T01:54:13.876Z,8.23
2023-01-19T01:56:46.045Z,8.17
2023-01-19T01:59:26.181Z,7.68
2023-01-19T02:02:11.090Z,5.38
2023-01-19T02:04:46.120Z,4.13
2023-01-19T02:07:37.704Z,6.40
2023-01-19T02:10:20.592Z,6.43
2023-01-19T02:13:03.617Z,5.20
2023-01-19T02:15:33.231Z,6.90
2023-01-19T02:18:02.747Z,5.82
2023-01-19T02:20:34.461Z,4.25
2023-01-19T02:23:10.408Z,6.55
2023-01-19T02:25:42.770Z,4.95
2023-01-19T02:28:12.861Z,7.45
2023-01-19T02:30:44.175Z,7.05
2023-01-19T02:33:13.831Z,6.13
2023-01-19T02:35:44.093Z,5.00
2023-01-19T02:38:14.650Z,4.97
2023-01-19T02:40:47.764Z,8.23
2023-01-19T02:43:20.407Z,4.70
2023-01-19T02:45:50.463Z,5.65
2023-01-19T02:48:23.258Z,5.50
2023-01-19T02:50:56.125Z,5.95
2023-01-19T02:53:40.176Z,5.45
2023-01-19T02:56:32.586Z,4.97
2023-01-19T02:59:07.395Z,4.88
2023-01-19T03:01:49.464Z,4.80
2023-01-19T03:04:29.642Z,8.77
2023-01-19T03:07:09.419Z,4.45
2023-01-19T03:09:49.175Z,6.78
2023-01-19T03:12:30.074Z,5.15
2023-01-19T03:15:04.990Z,4.18
2023-01-19T03:17:36.261Z,6.35
2023-01-19T03:20:08.120Z,7.72
2023-01-19T03:22:37.857Z,6.93
2023-01-19T03:25:09.466Z,5.15
2023-01-19T03:27:42.674Z,6.70
2023-01-19T03:30:18.676Z,4.53
2023-01-19T03:32:52.504Z,5.93
2023-01-19T03:35:27.672Z,4.03
2023-01-19T03:37:58.874Z,4.80
2023-01-19T03:40:30.506Z,6.35
2023-01-19T03:43:04.219Z,7.95
2023-01-19T03:45:35.987Z,6.28
2023-01-19T03:48:06.509Z,7.13
2023-01-19T03:50:36.166Z,6.38
2023-01-19T03:53:10.479Z,6.00
2023-01-19T03:55:42.716Z,6.47
2023-01-19T03:58:15.153Z,7.22
2023-01-19T04:00:44.724Z,7.35
2023-01-19T04:03:16.876Z,6.30
2023-01-19T04:05:47.145Z,4.90
2023-01-19T04:08:16.741Z,5.38
2023-01-19T04:10:46.287Z,4.60
2023-01-19T04:13:18.369Z,6.28
2023-01-19T04:15:47.900Z,5.57
2023-01-19T04:18:17.608Z,3.72
2023-01-19T04:20:47.170Z,5.32
2023-01-19T04:23:17.115Z,5.20
2023-01-19T04:25:46.652Z,3.97
2023-01-19T04:28:18.842Z,4.65
2023-01-19T04:30:52.237Z,4.35
2023-01-19T04:33:22.433Z,4.30
2023-01-19T04:35:54.608Z,5.13
2023-01-19T04:38:24.767Z,5.95
2023-01-19T04:40:55.729Z,8.05
2023-01-19T04:43:27.853Z,5.30
2023-01-19T04:45:57.483Z,4.38
2023-01-19T04:48:27.130Z,6.35
2023-01-19T04:50:56.644Z,5.35
2023-01-19T04:53:26.140Z,5.40
2023-01-19T04:55:57.234Z,5.57
2023-01-19T04:58:29.486Z,5.20
2023-01-19T05:00:59.151Z,5.45
2023-01-19T05:03:28.785Z,3.75
2023-01-19T05:05:58.308Z,4.43
2023-01-19T05:08:27.930Z,4.38
2023-01-19T05:10:57.619Z,5.00
2023-01-19T05:13:29.702Z,4.68
2023-01-19T05:15:59.280Z,6.80
2023-01-19T05:18:29.928Z,4.43
2023-01-19T05:20:59.445Z,6.00
2023-01-19T05:23:31.101Z,10.32
2023-01-19T05:26:00.877Z,5.30
2023-01-19T05:28:35.071Z,5.20
2023-01-19T05:31:04.673Z,5.88
2023-01-19T05:33:34.830Z,5.28
2023-01-19T05:36:04.428Z,5.30
2023-01-19T05:38:35.605Z,5.47
2023-01-19T05:41:05.645Z,4.47
2023-01-19T05:43:37.784Z,4.88
2023-01-19T05:46:07.594Z,4.35
2023-01-19T05:48:37.191Z,5.03
2023-01-19T05:51:07.830Z,4.13
2023-01-19T05:53:37.377Z,4.32
2023-01-19T05:56:11.195Z,5.43
2023-01-19T05:58:43.528Z,7.28
2023-01-19T06:01:13.695Z,5.47
2023-01-19T06:03:43.258Z,6.22
2023-01-19T06:06:15.044Z,8.65
2023-01-19T06:08:44.847Z,7.25
2023-01-19T06:11:14.802Z,7.47
2023-01-19T06:13:47.563Z,7.78
2023-01-19T06:16:17.208Z,6.97
2023-01-19T06:18:46.765Z,8.77
2023-01-19T06:21:18.649Z,6.70
2023-01-19T06:23:48.226Z,7.50
2023-01-19T06:26:17.759Z,6.82
2023-01-19T06:28:50.046Z,9.45
2023-01-19T06:31:19.617Z,6.18
2023-01-19T06:33:50.176Z,7.90
2023-01-19T06:36:19.748Z,6.68
2023-01-19T06:38:49.265Z,6.68
2023-01-19T06:41:18.765Z,6.68
2023-01-19T06:43:50.867Z,7.85
2023-01-19T06:46:20.391Z,8.23
2023-01-19T06:48:49.965Z,9.38
2023-01-19T06:51:19.494Z,6.57
2023-01-19T06:53:49.080Z,6.78
2023-01-19T06:56:18.876Z,8.43
2023-01-19T06:58:53.148Z,6.55
2023-01-19T07:01:22.723Z,10.25
2023-01-19T07:03:52.310Z,8.15
2023-01-19T07:06:21.893Z,7.22
2023-01-19T07:08:51.415Z,10.02
2023-01-19T07:11:25.361Z,9.23
2023-01-19T07:14:04.064Z,10.68
2023-01-19T07:16:34.067Z,8.35
2023-01-19T07:19:03.610Z,7.82
2023-01-19T07:21:33.286Z,7.90
2023-01-19T07:24:02.817Z,8.80
2023-01-19T07:26:32.333Z,10.32
2023-01-19T07:29:04.475Z,8.88
2023-01-19T07:31:34.217Z,9.35
2023-01-19T07:34:03.851Z,18.42
2023-01-19T07:36:33.662Z,10.15
2023-01-19T07:39:03.224Z,7.30
2023-01-19T07:41:32.974Z,16.85
2023-01-19T07:44:05.105Z,11.32
2023-01-19T07:46:34.706Z,11.05
2023-01-19T07:49:04.336Z,12.88
2023-01-19T07:51:33.958Z,9.98
2023-01-19T07:54:03.935Z,6.60
2023-01-19T07:56:33.858Z,10.35
2023-01-19T07:59:09.667Z,11.43
2023-01-19T08:01:39.657Z,14.68
2023-01-19T08:04:10.603Z,12.48
2023-01-19T08:06:41.925Z,12.52
2023-01-19T08:09:11.730Z,8.60
2023-01-19T08:11:41.849Z,10.40
2023-01-19T08:14:14.320Z,9.43
2023-01-19T08:16:43.815Z,7.85
2023-01-19T08:19:13.405Z,7.55
2023-01-19T08:21:43.318Z,6.25
2023-01-19T08:24:21.534Z,7.70
2023-01-19T08:26:53.273Z,6.80
2023-01-19T08:29:25.358Z,5.53
2023-01-19T08:31:57.545Z,6.43
2023-01-19T08:34:27.395Z,6.65
2023-01-19T08:36:56.943Z,10.30
2023-01-19T08:39:27.417Z,6.90
2023-01-19T08:41:57.028Z,15.30
2023-01-19T08:44:29.415Z,12.43
2023-01-19T08:46:58.995Z,15.98
2023-01-19T08:49:28.539Z,8.23
2023-01-19T08:51:58.077Z,6.43
2023-01-19T08:54:27.767Z,4.70
2023-01-19T08:56:57.350Z,7.53
2023-01-19T08:59:29.448Z,7.38
2023-01-19T09:01:59.088Z,9.00
2023-01-19T09:04:28.795Z,8.88
2023-01-19T09:06:58.357Z,7.90
2023-01-19T09:09:27.958Z,7.25
2023-01-19T09:11:57.855Z,5.43
2023-01-19T09:14:29.999Z,6.38
2023-01-19T09:16:59.508Z,6.28
2023-01-19T09:19:29.099Z,7.28
2023-01-19T09:21:59.545Z,6.80
2023-01-19T09:24:29.372Z,13.50
2023-01-19T09:26:58.882Z,7.68
2023-01-19T09:29:30.983Z,7.82
2023-01-19T09:32:00.547Z,7.78
2023-01-19T09:34:31.293Z,4.82
2023-01-19T09:37:00.956Z,6.68
2023-01-19T09:39:30.540Z,7.78
2023-01-19T09:42:09.284Z,5.93
2023-01-19T09:44:43.639Z,7.80
2023-01-19T09:47:17.752Z,6.25
2023-01-19T09:49:52.782Z,17.00
2023-01-19T09:52:23.136Z,5.57
2023-01-19T09:54:56.949Z,8.85
2023-01-19T09:57:28.231Z,5.53
2023-01-19T10:00:00.732Z,6.38
2023-01-19T10:02:39.585Z,5.93
2023-01-19T10:05:26.761Z,5.93
2023-01-19T10:08:10.439Z,6.45
2023-01-19T10:10:45.103Z,7.22
2023-01-19T10:13:24.295Z,6.68
2023-01-19T10:16:05.254Z,6.97
2023-01-19T10:18:47.636Z,4.75
2023-01-19T10:21:21.903Z,5.72
2023-01-19T10:23:55.287Z,6.35
2023-01-19T10:26:28.223Z,14.63
2023-01-19T10:29:04.192Z,9.63
2023-01-19T10:31:38.641Z,8.27
2023-01-19T10:34:08.475Z,7.05
2023-01-19T10:36:39.821Z,7.53
2023-01-19T10:39:10.928Z,6.65
2023-01-19T10:41:44.769Z,8.90
2023-01-19T10:44:14.703Z,6.65
2023-01-19T10:46:49.616Z,9.25
2023-01-19T10:49:31.419Z,6.27
2023-01-19T10:52:02.600Z,7.22
2023-01-19T10:54:34.105Z,7.97
2023-01-19T10:57:06.321Z,7.55
2023-01-19T10:59:38.671Z,5.60
2023-01-19T11:02:23.769Z,6.60
2023-01-19T11:04:55.444Z,7.55
2023-01-19T11:07:29.836Z,6.95
2023-01-19T11:10:20.901Z,5.50
2023-01-19T11:13:01.337Z,12.02
2023-01-19T11:15:37.531Z,6.28
2023-01-19T11:18:10.453Z,4.80
2023-01-19T11:20:52.219Z,5.32
2023-01-19T11:23:27.482Z,5.13
2023-01-19T11:26:01.316Z,6.43
2023-01-19T11:28:34.300Z,3.88
2023-01-19T11:31:05.681Z,5.22
2023-01-19T11:33:52.738Z,4.82
2023-01-19T11:36:24.130Z,4.93
2023-01-19T11:38:55.118Z,7.38
2023-01-19T11:41:29.601Z,12.02
2023-01-19T11:44:02.790Z,4.72
2023-01-19T11:46:36.477Z,4.78
2023-01-19T11:49:15.434Z,26.58
2023-01-19T11:51:53.715Z,4.03
2023-01-19T11:54:28.104Z,3.13
2023-01-19T11:56:59.386Z,7.20
2023-01-19T11:59:29.054Z,25.88
2023-01-19T12:02:03.153Z,26.40
2023-01-19T12:04:41.287Z,19.25
2023-01-19T12:07:14.524Z,17.63
2023-01-19T12:09:47.431Z,7.55
2023-01-19T12:12:28.764Z,9.57
2023-01-19T12:15:02.425Z,5.13
2023-01-19T12:17:36.384Z,3.90
2023-01-19T12:20:22.190Z,5.57
2023-01-19T12:22:56.777Z,4.88
2023-01-19T12:25:34.933Z,7.75
2023-01-19T12:28:06.547Z,6.40
2023-01-19T12:30:36.250Z,6.07
2023-01-19T12:33:24.285Z,5.70
2023-01-19T12:36:01.120Z,3.33
2023-01-19T12:38:41.631Z,2.50
2023-01-19T12:41:28.604Z,2.00
2023-01-19T12:44:34.414Z,2.60
2023-01-19T12:47:21.167Z,3.65
2023-01-19T12:49:54.601Z,1.80
2023-01-19T12:52:34.505Z,2.17
2023-01-19T12:55:19.840Z,5.70
2023-01-19T12:57:55.544Z,2.00
2023-01-19T13:00:37.618Z,1.88
2023-01-19T13:03:23.540Z,2.20
2023-01-19T13:05:55.368Z,2.00
2023-01-19T13:08:29.998Z,3.33
2023-01-19T13:11:24.323Z,3.88
2023-01-19T13:14:29.884Z,1.73
2023-01-19T13:17:06.423Z,3.08
2023-01-19T13:19:46.392Z,1.83
2023-01-19T13:22:45.935Z,2.60
2023-01-19T13:25:30.322Z,1.83
2023-01-19T13:28:00.495Z,1.70
2023-01-19T13:30:32.319Z,2.45
2023-01-19T13:33:08.909Z,2.92
2023-01-19T13:35:38.702Z,2.50
2023-01-19T13:38:10.257Z,2.55
2023-01-19T13:40:44.369Z,1.35
2023-01-19T13:43:20.204Z,1.70
2023-01-19T13:45:53.559Z,1.75
2023-01-19T13:48:25.284Z,2.78
2023-01-19T13:51:06.760Z,1.95
2023-01-19T13:53:36.952Z,2.47
2023-01-19T13:56:22.076Z,1.38
2023-01-19T13:59:10.388Z,2.47
2023-01-19T14:01:45.146Z,1.48
2023-01-19T14:04:32.562Z,2.13
2023-01-19T14:07:04.708Z,1.77
2023-01-19T14:09:34.523Z,2.42
2023-01-19T14:12:15.084Z,2.20
2023-01-19T14:14:46.822Z,3.15
2023-01-19T14:17:26.096Z,3.53
2023-01-19T14:19:57.014Z,5.32
2023-01-19T14:22:40.647Z,1.77
2023-01-19T14:25:35.279Z,1.95
2023-01-19T14:28:35.996Z,2.75
2023-01-19T14:31:20.789Z,1.92
2023-01-19T14:33:53.202Z,1.10
2023-01-19T14:36:30.914Z,1.05
2023-01-19T14:39:02.940Z,1.92
2023-01-19T14:41:40.463Z,3.25
2023-01-19T14:44:22.552Z,1.50
2023-01-19T14:46:52.543Z,1.42
2023-01-19T14:49:24.350Z,3.75
2023-01-19T14:51:56.044Z,1.52
2023-01-19T14:54:33.620Z,3.38
2023-01-19T14:57:03.183Z,1.77
2023-01-19T14:59:35.436Z,2.03
2023-01-19T15:02:05.069Z,3.08
2023-01-19T15:04:34.913Z,6.70
2023-01-19T15:07:04.526Z,5.55
2023-01-19T15:09:34.122Z,6.72
2023-01-19T15:12:03.700Z,6.45
2023-01-19T15:14:35.797Z,5.70
2023-01-19T15:17:05.404Z,1.33
2023-01-19T15:19:34.947Z,2.28
2023-01-19T15:22:04.515Z,5.30
2023-01-19T15:24:34.068Z,2.92
2023-01-19T15:27:03.674Z,4.10
2023-01-19T15:29:35.824Z,3.20
2023-01-19T15:32:05.596Z,4.15
2023-01-19T15:34:35.104Z,9.40
2023-01-19T15:37:04.633Z,7.32
2023-01-19T15:39:34.735Z,4.57
2023-01-19T15:42:04.345Z,4.97
2023-01-19T15:44:36.426Z,8.13
2023-01-19T15:47:05.920Z,11.02
2023-01-19T15:49:35.453Z,4.38
2023-01-19T15:52:04.998Z,4.95
2023-01-19T15:54:34.493Z,3.65
2023-01-19T15:57:04.105Z,7.57
2023-01-19T15:59:36.244Z,4.72
2023-01-19T16:02:06.852Z,3.47
2023-01-19T16:04:36.462Z,2.65
2023-01-19T16:07:06.002Z,2.83
2023-01-19T16:09:35.557Z,7.75
2023-01-19T16:12:05.060Z,3.70
2023-01-19T16:14:37.386Z,4.00
2023-01-19T16:17:06.943Z,2.38
2023-01-19T16:19:36.464Z,1.85
2023-01-19T16:22:06.064Z,4.43
2023-01-19T16:24:35.615Z,5.25
2023-01-19T16:27:05.181Z,7.75
2023-01-19T16:29:37.491Z,5.60
2023-01-19T16:32:07.601Z,5.88
2023-01-19T16:34:37.132Z,5.50
2023-01-19T16:37:06.629Z,5.82
2023-01-19T16:39:36.224Z,4.43
2023-01-19T16:42:06.310Z,4.57
2023-01-19T16:44:38.417Z,5.45
2023-01-19T16:47:08.082Z,7.13
2023-01-19T16:49:37.765Z,7.25
2023-01-19T16:52:07.733Z,6.75
2023-01-19T16:54:39.342Z,10.02
2023-01-19T16:57:08.961Z,7.45
2023-01-19T16:59:44.164Z,5.35
2023-01-19T17:02:14.031Z,7.57
2023-01-19T17:04:43.597Z,8.20
2023-01-19T17:07:13.106Z,7.15
2023-01-19T17:09:42.734Z,7.93
2023-01-19T17:12:12.657Z,10.27
2023-01-19T17:14:47.329Z,9.85
2023-01-19T17:17:17.421Z,8.95
2023-01-19T17:19:47.459Z,9.02
2023-01-19T17:22:16.985Z,8.73
2023-01-19T17:24:46.533Z,9.93
2023-01-19T17:27:17.220Z,6.18
2023-01-19T17:29:50.029Z,16.73
2023-01-19T17:32:19.673Z,14.48
2023-01-19T17:34:51.613Z,9.70
2023-01-19T17:37:21.181Z,5.57
2023-01-19T17:39:50.707Z,8.57
2023-01-19T17:42:20.238Z,8.10
2023-01-19T17:44:52.447Z,10.48
2023-01-19T17:47:25.913Z,7.68
2023-01-19T17:49:55.556Z,8.07
2023-01-19T17:52:25.163Z,8.63
2023-01-19T17:54:54.692Z,5.63
2023-01-19T17:57:24.260Z,10.43
2023-01-19T17:59:56.387Z,8.45
2023-01-19T18:02:26.292Z,10.18
2023-01-19T18:04:56.373Z,9.60
2023-01-19T18:07:26.072Z,7.78
2023-01-19T18:09:57.611Z,10.20
2023-01-19T18:12:28.141Z,12.82
2023-01-19T18:15:00.346Z,8.00
2023-01-19T18:17:29.882Z,7.15
2023-01-19T18:19:59.404Z,9.55
2023-01-19T18:22:28.935Z,7.88
2023-01-19T18:24:58.664Z,9.57
2023-01-19T18:27:29.207Z,7.60
2023-01-19T18:30:01.324Z,8.45
2023-01-19T18:32:30.857Z,10.18
2023-01-19T18:35:02.537Z,7.05
2023-01-19T18:37:32.089Z,10.45
2023-01-19T18:40:04.365Z,12.85
2023-01-19T18:42:34.034Z,9.15
2023-01-19T18:45:06.916Z,9.90
2023-01-19T18:47:36.501Z,14.20
2023-01-19T18:50:06.272Z,14.63
2023-01-19T18:52:35.904Z,14.88
2023-01-19T18:55:05.570Z,13.13
2023-01-19T18:57:37.023Z,14.38
2023-01-19T19:00:10.939Z,12.02
2023-01-19T19:02:40.717Z,9.68
2023-01-19T19:05:11.097Z,13.65
2023-01-19T19:07:40.681Z,14.55
2023-01-19T19:10:28.316Z,13.52
2023-01-19T19:12:57.824Z,10.90
2023-01-19T19:15:30.058Z,12.43
2023-01-19T19:17:59.619Z,12.85
2023-01-19T19:20:29.339Z,13.23
2023-01-19T19:22:58.920Z,11.32
2023-01-19T19:25:28.504Z,15.35
2023-01-19T19:27:58.178Z,12.32
2023-01-19T19:30:30.511Z,10.82
2023-01-19T19:33:01.125Z,11.93
2023-01-19T19:35:30.675Z,13.30
2023-01-19T19:38:00.533Z,11.48
2023-01-19T19:40:30.948Z,14.38
2023-01-19T19:43:00.479Z,10.13
2023-01-19T19:45:32.768Z,10.48
2023-01-19T19:48:02.329Z,11.98
2023-01-19T19:50:31.992Z,10.27
2023-01-19T19:53:01.861Z,12.77
2023-01-19T19:55:31.482Z,16.00
2023-01-19T19:58:01.007Z,16.23
2023-01-19T20:00:33.233Z,12.40
2023-01-19T20:03:03.133Z,10.48
2023-01-19T20:05:32.705Z,12.60
2023-01-19T20:08:02.296Z,12.35
2023-01-19T20:10:32.086Z,11.77
2023-01-19T20:13:01.657Z,14.68
2023-01-19T20:15:34.226Z,18.55
2023-01-19T20:18:04.408Z,33.95
2023-01-19T20:20:33.993Z,18.25
2023-01-19T20:23:04.237Z,20.90
2023-01-19T20:25:33.841Z,14.00
2023-01-19T20:28:03.399Z,13.88
2023-01-19T20:30:35.567Z,12.25
2023-01-19T20:33:05.337Z,15.23
2023-01-19T20:35:35.054Z,14.07
2023-01-19T20:38:04.761Z,10.82
2023-01-19T20:40:34.313Z,14.55
2023-01-19T20:43:03.893Z,14.80
2023-01-19T20:45:36.326Z,14.20
2023-01-19T20:48:05.901Z,12.68
2023-01-19T20:50:37.735Z,10.82
2023-01-19T20:53:07.285Z,14.18
2023-01-19T20:55:38.402Z,13.65
2023-01-19T20:58:08.360Z,15.50
2023-01-19T21:00:40.939Z,13.57
2023-01-19T21:03:10.628Z,15.13
2023-01-19T21:05:40.229Z,14.75
2023-01-19T21:08:09.792Z,14.75
2023-01-19T21:10:39.330Z,16.90
2023-01-19T21:13:08.915Z,17.98
2023-01-19T21:15:41.059Z,16.92
2023-01-19T21:18:10.572Z,18.50
2023-01-19T21:20:40.134Z,14.75
2023-01-19T21:23:09.975Z,16.80
2023-01-19T21:25:39.880Z,17.80
2023-01-19T21:28:09.417Z,15.98
2023-01-19T21:30:41.552Z,13.25
2023-01-19T21:33:11.119Z,14.70
2023-01-19T21:35:40.776Z,18.13
2023-01-19T21:38:10.299Z,18.48
2023-01-19T21:40:39.848Z,10.85
2023-01-19T21:43:10.516Z,16.00
2023-01-19T21:45:43.188Z,16.23
2023-01-19T21:48:13.619Z,16.83
2023-01-19T21:50:43.614Z,23.30
2023-01-19T21:53:13.683Z,20.55
2023-01-19T21:55:47.246Z,13.65
2023-01-19T21:58:16.825Z,20.73
2023-01-19T22:00:48.941Z,16.00
2023-01-19T22:03:18.786Z,19.15
2023-01-19T22:05:48.423Z,15.05
2023-01-19T22:08:20.230Z,14.82
2023-01-19T22:10:49.845Z,13.95
2023-01-19T22:13:19.463Z,11.43
2023-01-19T22:15:51.908Z,17.00
2023-01-19T22:18:21.538Z,16.77
2023-01-19T22:20:51.056Z,14.05
2023-01-19T22:23:20.874Z,17.00
2023-01-19T22:25:50.500Z,16.95
2023-01-19T22:28:20.083Z,16.30
2023-01-19T22:30:52.281Z,16.88
2023-01-19T22:33:21.901Z,15.07
2023-01-19T22:35:51.770Z,17.80
2023-01-19T22:38:21.357Z,18.45
2023-01-19T22:40:50.882Z,19.88
2023-01-19T22:43:20.394Z,20.92
2023-01-19T22:45:52.531Z,20.92
2023-01-19T22:48:22.350Z,20.33
2023-01-19T22:50:57.981Z,22.52
2023-01-19T22:55:56.929Z,18.17
2023-01-19T22:58:26.496Z,20.95
2023-01-19T23:00:58.691Z,20.27
2023-01-19T23:03:28.240Z,17.60
2023-01-19T23:05:57.873Z,21.85
2023-01-19T23:08:27.478Z,21.33
2023-01-19T23:10:57.007Z,21.38
2023-01-19T23:13:26.593Z,23.13
2023-01-19T23:15:59.932Z,16.45
2023-01-19T23:18:29.666Z,15.98
2023-01-19T23:21:04.235Z,17.65
2023-01-19T23:23:33.910Z,14.60
2023-01-19T23:26:04.087Z,13.48
2023-01-19T23:28:34.387Z,21.13
2023-01-19T23:31:16.306Z,14.80
2023-01-19T23:33:46.893Z,11.30
2023-01-19T23:36:17.819Z,13.07
2023-01-19T23:38:51.437Z,13.95
2023-01-19T23:41:21.564Z,12.60
2023-01-19T23:43:51.726Z,16.58
2023-01-19T23:46:24.924Z,15.55
2023-01-19T23:48:55.034Z,16.02
2023-01-19T23:51:26.950Z,13.23
2023-01-19T23:53:56.853Z,11.05
2023-01-19T23:56:28.089Z,18.70
2023-01-19T23:58:59.261Z,11.90
